createdAt,value
2022-11-12T00:00:33.648Z,101544.06
2022-11-12T00:03:20.976Z,101547.41
2022-11-12T00:06:07.914Z,101547.97
2022-11-12T00:08:54.789Z,101539.19
2022-11-12T00:11:41.910Z,101535.41
2022-11-12T00:14:29.938Z,101534.16
2022-11-12T00:17:18.196Z,101536.63
2022-11-12T00:20:06.904Z,101536.03
2022-11-12T00:22:53.605Z,101526.09
2022-11-12T00:25:40.330Z,101537.16
2022-11-12T00:28:27.239Z,101533.81
2022-11-12T00:31:15.036Z,101533.44
2022-11-12T00:34:03.437Z,101531.13
2022-11-12T00:36:50.150Z,101533.78
2022-11-12T00:39:37.056Z,101529.81
2022-11-12T00:42:24.106Z,101535.22
2022-11-12T00:45:11.601Z,101539.28
2022-11-12T00:47:58.902Z,101534.28
2022-11-12T00:50:48.104Z,101541.38
2022-11-12T00:53:35.131Z,101534.72
2022-11-12T00:56:22.734Z,101536.28
2022-11-12T00:59:09.823Z,101534.84
2022-11-12T01:01:56.919Z,101537.78
2022-11-12T01:04:43.874Z,101536.16
2022-11-12T01:07:31.997Z,101529.84
2022-11-12T01:10:19.010Z,101531.22
2022-11-12T01:13:06.183Z,101526.75
2022-11-12T01:15:53.023Z,101519.28
2022-11-12T01:18:40.204Z,101531.56
2022-11-12T01:21:30.277Z,101534.28
2022-11-12T01:24:18.587Z,101539.47
2022-11-12T01:27:05.477Z,101537.31
2022-11-12T01:29:52.143Z,101545.97
2022-11-12T01:32:38.906Z,101540.63
2022-11-12T01:35:25.709Z,101535.91
2022-11-12T01:38:12.244Z,101542.31
2022-11-12T01:41:01.700Z,101542.63
2022-11-12T01:43:49.067Z,101548.44
2022-11-12T01:46:41.778Z,101539.94
2022-11-12T01:49:34.057Z,101546.53
2022-11-12T01:52:25.869Z,101542.25
2022-11-12T01:55:17.702Z,101542.81
2022-11-12T01:58:11.226Z,101542.47
2022-11-12T02:00:58.862Z,101542.19
2022-11-12T02:03:45.644Z,101545.53
2022-11-12T02:06:34.028Z,101541.16
2022-11-12T02:09:21.169Z,101541.59
2022-11-12T02:12:28.520Z,101543.03
2022-11-12T02:15:15.949Z,101544.03
2022-11-12T02:18:02.735Z,101546.81
2022-11-12T02:20:56.024Z,101541.81
2022-11-12T02:23:43.832Z,101547.69
2022-11-12T02:26:36.501Z,101545.97
2022-11-12T02:29:23.750Z,101547.19
2022-11-12T02:32:10.563Z,101540.47
2022-11-12T02:34:58.193Z,101543.69
2022-11-12T02:37:45.012Z,101541.50
2022-11-12T02:40:33.088Z,101534.88
2022-11-12T02:43:20.104Z,101534.44
2022-11-12T02:46:07.547Z,101536.91
2022-11-12T02:48:54.385Z,101534.03
2022-11-12T02:51:41.040Z,101530.94
2022-11-12T02:54:27.767Z,101531.16
2022-11-12T02:57:15.737Z,101528.78
2022-11-12T03:00:02.705Z,101533.69
2022-11-12T03:02:59.418Z,101529.28
2022-11-12T03:05:55.275Z,101531.59
2022-11-12T03:08:42.594Z,101528.28
2022-11-12T03:11:29.666Z,101524.25
2022-11-12T03:14:17.808Z,101528.09
2022-11-12T03:17:04.877Z,101527.88
2022-11-12T03:19:51.480Z,101518.44
2022-11-12T03:22:38.327Z,101519.69
2022-11-12T03:25:25.148Z,101510.38
2022-11-12T03:28:14.416Z,101506.72
2022-11-12T03:31:02.793Z,101509.16
2022-11-12T03:33:49.435Z,101506.38
2022-11-12T03:36:36.170Z,101507.59
2022-11-12T03:39:22.778Z,101503.22
2022-11-12T03:42:10.330Z,101503.34
2022-11-12T03:44:57.449Z,101501.47
2022-11-12T03:47:48.650Z,101503.53
2022-11-12T03:50:35.827Z,101494.03
2022-11-12T03:53:22.464Z,101502.31
2022-11-12T03:56:09.394Z,101492.59
2022-11-12T03:58:56.455Z,101493.50
2022-11-12T04:01:43.543Z,101494.19
2022-11-12T04:04:45.678Z,101499.03
2022-11-12T04:07:50.237Z,101494.19
2022-11-12T04:10:37.030Z,101492.09
2022-11-12T04:13:30.319Z,101485.81
2022-11-12T04:16:37.363Z,101488.13
2022-11-12T04:19:50.341Z,101490.69
2022-11-12T04:22:38.701Z,101492.88
2022-11-12T04:25:43.625Z,101487.41
2022-11-12T04:28:30.689Z,101483.94
2022-11-12T04:31:16.607Z,101480.91
2022-11-12T04:34:17.472Z,101487.19
2022-11-12T04:37:05.750Z,101482.53
2022-11-12T04:39:54.364Z,101474.66
2022-11-12T04:43:00.226Z,101475.50
2022-11-12T04:45:51.283Z,101484.84
2022-11-12T04:48:37.919Z,101476.84
2022-11-12T04:51:42.117Z,101479.72
2022-11-12T04:54:29.086Z,101468.97
2022-11-12T04:57:16.965Z,101478.66
2022-11-12T05:00:04.876Z,101470.06
2022-11-12T05:02:51.969Z,101474.34
2022-11-12T05:05:39.069Z,101467.91
2022-11-12T05:08:25.960Z,101460.09
2022-11-12T05:11:13.156Z,101462.59
2022-11-12T05:14:01.706Z,101461.09
2022-11-12T05:16:49.000Z,101456.81
2022-11-12T05:19:36.118Z,101455.41
2022-11-12T05:22:42.629Z,101450.44
2022-11-12T05:25:30.938Z,101446.19
2022-11-12T05:28:17.409Z,101439.69
2022-11-12T05:31:05.683Z,101435.38
2022-11-12T05:33:52.415Z,101432.38
2022-11-12T05:36:39.379Z,101424.78
2022-11-12T05:39:26.723Z,101421.88
2022-11-12T05:42:14.551Z,101425.03
2022-11-12T05:45:01.738Z,101423.19
2022-11-12T05:47:50.626Z,101426.13
2022-11-12T05:50:51.221Z,101427.03
2022-11-12T05:53:44.615Z,101427.09
2022-11-12T05:56:31.968Z,101418.16
2022-11-12T05:59:19.761Z,101415.91
2022-11-12T06:02:06.411Z,101422.81
2022-11-12T06:04:54.610Z,101427.94
2022-11-12T06:07:41.803Z,101429.63
2022-11-12T06:10:29.005Z,101442.69
2022-11-12T06:13:15.931Z,101428.06
2022-11-12T06:16:03.572Z,101430.69
2022-11-12T06:18:50.703Z,101428.50
2022-11-12T06:21:38.700Z,101436.00
2022-11-12T06:24:32.098Z,101440.06
2022-11-12T06:27:21.788Z,101448.59
2022-11-12T06:30:10.427Z,101447.81
2022-11-12T06:32:58.204Z,101448.19
2022-11-12T06:35:45.294Z,101458.72
2022-11-12T06:38:34.909Z,101459.03
2022-11-12T06:41:22.883Z,101459.59
2022-11-12T06:44:09.741Z,101462.03
2022-11-12T06:46:56.323Z,101471.19
2022-11-12T06:49:43.133Z,101471.53
2022-11-12T06:52:30.105Z,101476.69
2022-11-12T06:55:18.239Z,101476.84
2022-11-12T06:58:06.009Z,101482.72
2022-11-12T07:00:53.101Z,101484.22
2022-11-12T07:03:42.712Z,101481.69
2022-11-12T07:06:29.727Z,101489.38
2022-11-12T07:09:16.326Z,101487.34
2022-11-12T07:12:04.524Z,101497.19
2022-11-12T07:14:52.533Z,101486.72
2022-11-12T07:17:39.559Z,101492.09
2022-11-12T07:20:26.847Z,101486.38
2022-11-12T07:23:13.712Z,101485.81
2022-11-12T07:26:03.107Z,101487.03
2022-11-12T07:28:53.144Z,101476.25
2022-11-12T07:31:39.945Z,101479.34
2022-11-12T07:34:26.699Z,101475.47
2022-11-12T07:37:13.443Z,101481.84
2022-11-12T07:40:00.261Z,101472.66
2022-11-12T07:42:46.907Z,101479.47
2022-11-12T07:45:35.974Z,101464.47
2022-11-12T07:48:22.841Z,101472.63
2022-11-12T07:51:14.718Z,101463.75
2022-11-12T07:54:01.745Z,101470.59
2022-11-12T07:56:48.482Z,101468.53
2022-11-12T07:59:35.435Z,101470.97
2022-11-12T08:02:23.633Z,101467.66
2022-11-12T08:05:17.604Z,101472.31
2022-11-12T08:08:06.164Z,101474.81
2022-11-12T08:10:56.892Z,101480.94
2022-11-12T08:13:43.529Z,101478.34
2022-11-12T08:16:30.201Z,101486.94
2022-11-12T08:19:18.155Z,101491.19
2022-11-12T08:22:05.993Z,101494.47
2022-11-12T08:24:52.585Z,101492.53
2022-11-12T08:27:39.447Z,101499.31
2022-11-12T08:30:26.744Z,101496.06
2022-11-12T08:33:13.401Z,101499.81
2022-11-12T08:36:04.370Z,101506.63
2022-11-12T08:38:54.299Z,101500.38
2022-11-12T08:41:40.981Z,101499.44
2022-11-12T08:44:27.690Z,101500.59
2022-11-12T08:47:14.390Z,101501.50
2022-11-12T08:50:00.947Z,101498.56
2022-11-12T08:52:49.659Z,101500.50
2022-11-12T08:55:37.212Z,101488.75
2022-11-12T08:58:24.609Z,101489.13
2022-11-12T09:01:13.107Z,101491.88
2022-11-12T09:04:01.030Z,101481.84
2022-11-12T09:06:53.595Z,101480.09
2022-11-12T09:09:42.263Z,101477.09
2022-11-12T09:12:29.502Z,101478.75
2022-11-12T09:15:37.900Z,101480.00
2022-11-12T09:18:23.619Z,101477.97
2022-11-12T09:21:13.372Z,101471.44
2022-11-12T09:24:00.497Z,101473.03
2022-11-12T09:26:48.839Z,101468.25
2022-11-12T09:29:35.572Z,101468.47
2022-11-12T09:32:22.082Z,101473.69
2022-11-12T09:35:09.309Z,101460.22
2022-11-12T09:37:56.089Z,101469.69
2022-11-12T09:41:15.680Z,101462.78
2022-11-12T09:44:09.718Z,101459.72
2022-11-12T09:47:03.737Z,101463.41
2022-11-12T09:50:00.029Z,101474.50
2022-11-12T09:52:48.372Z,101477.06
2022-11-12T09:55:40.939Z,101475.78
2022-11-12T09:58:29.022Z,101484.53
2022-11-12T10:01:23.102Z,101479.94
2022-11-12T10:04:45.203Z,101481.28
2022-11-12T10:07:53.626Z,101475.03
2022-11-12T10:10:48.232Z,101473.13
2022-11-12T10:13:53.206Z,101468.13
2022-11-12T10:16:58.752Z,101468.88
2022-11-12T10:20:02.119Z,101477.44
2022-11-12T10:23:03.712Z,101467.00
2022-11-12T10:25:54.574Z,101464.28
2022-11-12T10:28:47.987Z,101471.28
2022-11-12T10:31:34.825Z,101472.72
2022-11-12T10:34:25.385Z,101471.19
2022-11-12T10:37:20.154Z,101469.25
2022-11-12T10:40:33.226Z,101465.19
2022-11-12T10:43:24.533Z,101461.84
2022-11-12T10:46:20.598Z,101457.16
2022-11-12T10:49:23.688Z,101456.47
2022-11-12T10:52:24.835Z,101453.13
2022-11-12T10:55:21.086Z,101439.13
2022-11-12T10:58:19.863Z,101436.13
2022-11-12T11:01:15.500Z,101439.94
2022-11-12T11:04:02.553Z,101432.69
2022-11-12T11:06:49.420Z,101432.88
2022-11-12T11:09:38.516Z,101429.97
2022-11-12T11:12:29.039Z,101431.16
2022-11-12T11:15:22.730Z,101425.84
2022-11-12T11:18:12.514Z,101426.06
2022-11-12T11:21:19.428Z,101420.44
2022-11-12T11:24:26.572Z,101413.56
2022-11-12T11:27:39.121Z,101421.28
2022-11-12T11:30:26.526Z,101425.53
2022-11-12T11:33:40.579Z,101411.94
2022-11-12T11:36:36.018Z,101407.66
2022-11-12T11:39:36.139Z,101404.06
2022-11-12T11:42:55.807Z,101408.13
2022-11-12T11:46:03.431Z,101406.84
2022-11-12T11:49:09.316Z,101406.06
2022-11-12T11:52:03.559Z,101406.16
2022-11-12T11:55:10.792Z,101400.38
2022-11-12T11:58:16.995Z,101400.34
2022-11-12T12:01:16.672Z,101396.53
2022-11-12T12:04:27.542Z,101401.56
2022-11-12T12:07:33.304Z,101402.34
2022-11-12T12:10:46.315Z,101401.81
2022-11-12T12:13:50.104Z,101400.75
2022-11-12T12:17:00.400Z,101398.31
2022-11-12T12:20:04.237Z,101394.84
2022-11-12T12:22:57.892Z,101383.88
2022-11-12T12:25:48.265Z,101374.81
2022-11-12T12:28:42.959Z,101377.03
2022-11-12T12:31:37.845Z,101371.75
2022-11-12T12:34:31.227Z,101368.16
2022-11-12T12:37:29.280Z,101367.06
2022-11-12T12:40:22.698Z,101373.84
2022-11-12T12:43:15.036Z,101372.31
2022-11-12T12:46:05.711Z,101370.63
2022-11-12T12:48:54.990Z,101365.94
2022-11-12T12:51:41.469Z,101364.50
2022-11-12T12:54:59.517Z,101364.00
2022-11-12T12:57:46.731Z,101365.13
2022-11-12T13:00:39.590Z,101362.44
2022-11-12T13:04:04.979Z,101355.88
2022-11-12T13:06:54.913Z,101357.22
2022-11-12T13:09:42.042Z,101358.94
2022-11-12T13:13:03.797Z,101351.69
2022-11-12T13:15:54.012Z,101345.00
2022-11-12T13:19:02.018Z,101354.28
2022-11-12T13:22:49.178Z,101354.34
2022-11-12T13:25:36.282Z,101352.31
2022-11-12T13:28:24.762Z,101348.59
2022-11-12T13:31:29.066Z,101351.13
2022-11-12T13:34:22.733Z,101356.50
2022-11-12T13:37:22.265Z,101344.50
2022-11-12T13:40:15.445Z,101349.22
2022-11-12T13:43:12.181Z,101340.50
2022-11-12T13:46:10.817Z,101340.81
2022-11-12T13:49:03.438Z,101337.47
2022-11-12T13:51:53.174Z,101328.91
2022-11-12T13:54:41.848Z,101325.00
2022-11-12T13:57:33.293Z,101324.72
2022-11-12T14:00:38.562Z,101321.25
2022-11-12T14:03:30.038Z,101317.59
2022-11-12T14:06:22.014Z,101312.63
2022-11-12T14:09:49.638Z,101311.13
2022-11-12T14:12:59.462Z,101315.47
2022-11-12T14:16:16.807Z,101318.88
2022-11-12T14:19:58.723Z,101310.00
2022-11-12T14:22:46.982Z,101329.00
2022-11-12T14:25:35.703Z,101317.25
2022-11-12T14:28:29.882Z,101313.09
2022-11-12T14:31:24.267Z,101308.97
2022-11-12T14:34:28.038Z,101313.66
2022-11-12T14:37:39.798Z,101309.94
2022-11-12T14:40:33.427Z,101301.91
2022-11-12T14:43:42.707Z,101297.34
2022-11-12T14:46:38.325Z,101301.34
2022-11-12T14:49:40.670Z,101301.03
2022-11-12T14:52:35.698Z,101301.63
2022-11-12T14:55:26.793Z,101299.28
2022-11-12T14:58:15.978Z,101304.94
2022-11-12T15:02:13.856Z,101301.28
2022-11-12T15:04:39.251Z,101294.53
2022-11-12T15:07:29.356Z,101300.94
2022-11-12T15:10:37.341Z,101298.97
2022-11-12T15:13:27.900Z,101289.53
2022-11-12T15:16:24.164Z,101292.72
2022-11-12T15:19:23.355Z,101287.19
2022-11-12T15:22:21.588Z,101285.69
2022-11-12T15:25:23.591Z,101284.16
2022-11-12T15:28:23.615Z,101293.16
2022-11-12T15:31:20.668Z,101298.81
2022-11-12T15:34:47.526Z,101300.25
2022-11-12T15:37:44.101Z,101292.78
2022-11-12T15:40:32.991Z,101295.81
2022-11-12T15:43:24.633Z,101280.34
2022-11-12T15:46:15.403Z,101282.00
2022-11-12T15:49:02.211Z,101278.81
2022-11-12T15:51:50.555Z,101271.09
2022-11-12T15:54:41.202Z,101268.53
2022-11-12T15:57:32.847Z,101268.81
2022-11-12T16:00:22.440Z,101268.81
2022-11-12T16:03:16.572Z,101268.22
2022-11-12T16:06:08.564Z,101269.00
2022-11-12T16:08:57.566Z,101266.63
2022-11-12T16:11:44.116Z,101265.66
2022-11-12T16:14:31.386Z,101266.69
2022-11-12T16:17:19.871Z,101264.41
2022-11-12T16:20:14.395Z,101265.59
2022-11-12T16:23:01.816Z,101261.34
2022-11-12T16:25:50.116Z,101269.75
2022-11-12T16:28:38.397Z,101269.56
2022-11-12T16:31:25.879Z,101264.94
2022-11-12T16:34:13.367Z,101263.56
2022-11-12T16:37:00.493Z,101263.41
2022-11-12T16:39:47.032Z,101267.47
2022-11-12T16:42:35.183Z,101262.66
2022-11-12T16:45:23.872Z,101256.31
2022-11-12T16:48:17.623Z,101257.66
2022-11-12T16:51:04.447Z,101255.41
2022-11-12T16:53:51.484Z,101254.94
2022-11-12T16:56:38.330Z,101263.97
2022-11-12T16:59:26.252Z,101263.78
2022-11-12T17:02:16.402Z,101262.09
2022-11-12T17:05:04.351Z,101262.81
2022-11-12T17:07:57.154Z,101249.63
2022-11-12T17:10:44.208Z,101254.66
2022-11-12T17:13:30.992Z,101250.47
2022-11-12T17:16:19.136Z,101243.59
2022-11-12T17:19:06.490Z,101241.47
2022-11-12T17:21:53.561Z,101244.91
2022-11-12T17:24:40.149Z,101239.81
2022-11-12T17:27:27.365Z,101233.41
2022-11-12T17:30:15.177Z,101241.75
2022-11-12T17:33:04.529Z,101238.88
2022-11-12T17:35:51.440Z,101239.97
2022-11-12T17:38:38.490Z,101240.44
2022-11-12T17:41:26.202Z,101233.06
2022-11-12T17:44:17.410Z,101238.78
2022-11-12T17:47:04.269Z,101233.56
2022-11-12T17:49:52.560Z,101229.63
2022-11-12T17:52:39.289Z,101232.50
2022-11-12T17:55:25.999Z,101227.47
2022-11-12T17:58:12.627Z,101231.88
2022-11-12T18:01:07.306Z,101227.25
2022-11-12T18:03:56.894Z,101221.22
2022-11-12T18:06:45.474Z,101232.13
2022-11-12T18:09:32.599Z,101218.94
2022-11-12T18:12:19.314Z,101224.41
2022-11-12T18:15:07.484Z,101225.09
2022-11-12T18:17:54.314Z,101223.91
2022-11-12T18:20:42.570Z,101225.81
2022-11-12T18:23:30.890Z,101228.88
2022-11-12T18:26:19.301Z,101229.38
2022-11-12T18:29:07.271Z,101215.84
2022-11-12T18:31:54.372Z,101225.00
2022-11-12T18:34:44.894Z,101230.47
2022-11-12T18:37:31.924Z,101227.25
2022-11-12T18:40:21.778Z,101227.84
2022-11-12T18:43:08.720Z,101221.41
2022-11-12T18:45:56.381Z,101215.72
2022-11-12T18:48:43.458Z,101217.16
2022-11-12T18:51:30.676Z,101216.56
2022-11-12T18:54:19.099Z,101222.22
2022-11-12T18:57:07.429Z,101213.16
2022-11-12T18:59:55.048Z,101213.56
2022-11-12T19:02:43.169Z,101214.41
2022-11-12T19:05:30.610Z,101213.78
2022-11-12T19:08:19.390Z,101213.34
2022-11-12T19:11:10.776Z,101207.41
2022-11-12T19:13:58.914Z,101211.22
2022-11-12T19:16:45.719Z,101213.94
2022-11-12T19:19:33.600Z,101213.22
2022-11-12T19:22:20.488Z,101217.50
2022-11-12T19:25:08.263Z,101215.78
2022-11-12T19:27:55.176Z,101209.09
2022-11-12T19:30:43.467Z,101211.63
2022-11-12T19:33:31.318Z,101204.81
2022-11-12T19:36:20.668Z,101205.66
2022-11-12T19:39:07.317Z,101205.78
2022-11-12T19:41:54.273Z,101209.69
2022-11-12T19:44:41.415Z,101197.34
2022-11-12T19:47:29.524Z,101209.31
2022-11-12T19:50:20.892Z,101198.19
2022-11-12T19:53:11.758Z,101195.72
2022-11-12T19:56:01.627Z,101190.41
2022-11-12T19:58:50.036Z,101192.31
2022-11-12T20:01:37.464Z,101187.69
2022-11-12T20:04:25.393Z,101186.44
2022-11-12T20:07:12.496Z,101190.06
2022-11-12T20:10:01.106Z,101184.13
2022-11-12T20:12:48.457Z,101181.56
2022-11-12T20:15:35.280Z,101176.78
2022-11-12T20:18:22.449Z,101184.28
2022-11-12T20:21:10.828Z,101177.53
2022-11-12T20:24:00.933Z,101170.31
2022-11-12T20:26:47.642Z,101175.53
2022-11-12T20:29:34.578Z,101170.88
2022-11-12T20:32:22.000Z,101173.94
2022-11-12T20:35:17.776Z,101167.63
2022-11-12T20:38:09.556Z,101170.16
2022-11-12T20:41:02.706Z,101161.50
2022-11-12T20:43:49.244Z,101159.56
2022-11-12T20:46:36.113Z,101161.84
2022-11-12T20:49:22.863Z,101159.38
2022-11-12T20:52:09.544Z,101165.94
2022-11-12T20:54:57.805Z,101157.41
2022-11-12T20:57:46.821Z,101148.34
2022-11-12T21:00:33.945Z,101157.84
2022-11-12T21:03:21.827Z,101149.97
2022-11-12T21:06:12.658Z,101160.72
2022-11-12T21:09:00.916Z,101159.19
2022-11-12T21:11:49.269Z,101152.19
2022-11-12T21:14:36.513Z,101149.03
2022-11-12T21:17:23.844Z,101149.41
2022-11-12T21:20:11.748Z,101150.34
2022-11-12T21:22:58.842Z,101153.84
2022-11-12T21:25:45.582Z,101151.06
2022-11-12T21:28:38.021Z,101153.19
2022-11-12T21:31:28.001Z,101144.00
2022-11-12T21:34:15.174Z,101152.97
2022-11-12T21:37:02.885Z,101147.47
2022-11-12T21:39:49.888Z,101143.53
2022-11-12T21:42:36.620Z,101140.13
2022-11-12T21:45:24.749Z,101139.91
2022-11-12T21:48:11.270Z,101135.13
2022-11-12T21:51:03.590Z,101129.03
2022-11-12T21:53:55.503Z,101126.66
2022-11-12T21:56:42.192Z,101128.56
2022-11-12T21:59:29.197Z,101123.44
2022-11-12T22:02:17.479Z,101124.78
2022-11-12T22:05:04.545Z,101129.78
2022-11-12T22:07:52.924Z,101127.81
2022-11-12T22:10:39.756Z,101127.81
2022-11-12T22:13:27.665Z,101125.22
2022-11-12T22:16:17.221Z,101124.59
2022-11-12T22:19:05.638Z,101128.75
2022-11-12T22:21:52.408Z,101122.19
2022-11-12T22:24:39.487Z,101125.19
2022-11-12T22:27:26.885Z,101116.34
2022-11-12T22:30:14.324Z,101127.94
2022-11-12T22:33:02.505Z,101120.41
2022-11-12T22:35:50.752Z,101119.06
2022-11-12T22:38:40.239Z,101111.66
2022-11-12T22:41:29.882Z,101111.94
2022-11-12T22:44:16.810Z,101109.03
2022-11-12T22:47:03.368Z,101108.44
2022-11-12T22:49:50.394Z,101107.78
2022-11-12T22:52:38.496Z,101109.09
2022-11-12T22:55:25.342Z,101107.22
2022-11-12T22:58:13.677Z,101107.31
2022-11-12T23:01:00.663Z,101107.66
2022-11-12T23:03:47.400Z,101104.66
2022-11-12T23:06:34.277Z,101106.31
2022-11-12T23:09:22.648Z,101092.88
2022-11-12T23:12:09.390Z,101093.97
2022-11-12T23:14:56.118Z,101092.72
2022-11-12T23:17:43.470Z,101093.84
2022-11-12T23:20:30.554Z,101103.53
2022-11-12T23:23:19.518Z,101090.84
2022-11-12T23:26:11.334Z,101096.13
2022-11-12T23:28:58.393Z,101094.31
2022-11-12T23:31:45.573Z,101094.91
2022-11-12T23:34:32.712Z,101085.56
2022-11-12T23:37:19.640Z,101088.66
2022-11-12T23:40:07.950Z,101084.13
2022-11-12T23:42:56.858Z,101084.13
2022-11-12T23:45:43.727Z,101089.50
2022-11-12T23:48:30.912Z,101093.34
2022-11-12T23:51:20.363Z,101086.50
2022-11-12T23:54:07.382Z,101085.13
2022-11-12T23:56:55.317Z,101091.91
2022-11-12T23:59:43.812Z,101081.31
